Time;durP1;ratioP1;P1;durP2;ratioP2;P2;SDS_P1;SDS_P2;PMS_P1;PMS_P2;Temp;Humidity;BMP_temperature;BMP_pressure;BME280_temperature;BME280_humidity;BME280_pressure;Samples;Min_cycle;Max_cycle;Signal;HPM_P1;HPM_P2
2021/11/06 00:01:27;;;;;;;18.40;9.93;;;8.10;99.90;;;;;;4991410;28;20164;-73
2021/11/06 00:03:53;;;;;;;24.77;10.63;;;8.10;99.90;;;;;;4992107;28;20172;-74
2021/11/06 00:06:18;;;;;;;22.60;10.53;;;8.00;99.90;;;;;;5009840;28;20524;-73
2021/11/06 00:08:44;;;;;;;19.80;10.30;;;8.00;99.90;;;;;;5011694;28;20203;-74
2021/11/06 00:11:10;;;;;;;18.70;10.80;;;8.00;99.90;;;;;;5010429;28;20205;-74
2021/11/06 00:13:35;;;;;;;28.50;11.80;;;7.90;99.90;;;;;;5011279;28;20251;-72
2021/11/06 00:16:01;;;;;;;21.20;9.73;;;7.90;99.90;;;;;;4993342;28;20234;-73
2021/11/06 00:18:27;;;;;;;17.00;11.57;;;7.90;99.90;;;;;;5011151;28;20537;-73
2021/11/06 00:20:52;;;;;;;22.27;10.80;;;7.90;99.90;;;;;;5010521;28;20222;-74
2021/11/06 00:23:18;;;;;;;19.30;11.10;;;7.80;99.90;;;;;;5011427;28;20677;-74
2021/11/06 00:25:44;;;;;;;22.97;13.23;;;7.80;99.90;;;;;;5011688;28;20669;-73
2021/11/06 00:28:10;;;;;;;20.43;11.83;;;7.80;99.90;;;;;;4993490;28;20813;-74
2021/11/06 00:30:36;;;;;;;23.50;12.50;;;7.80;99.90;;;;;;5008695;28;20241;-74
2021/11/06 00:33:01;;;;;;;24.93;13.00;;;7.80;99.90;;;;;;5010905;28;20290;-74
2021/11/06 00:35:27;;;;;;;29.03;13.90;;;7.70;99.90;;;;;;5011311;28;20565;-74
2021/11/06 00:37:53;;;;;;;32.17;12.77;;;7.70;99.90;;;;;;5011738;28;20645;-72
2021/11/06 00:40:19;;;;;;;22.93;13.43;;;7.70;99.90;;;;;;5011711;28;20649;-73
2021/11/06 00:42:45;;;;;;;27.30;14.40;;;7.70;99.90;;;;;;5010640;28;20506;-73
2021/11/06 00:45:12;;;;;;;25.47;13.87;;;7.60;99.90;;;;;;5011180;28;20274;-73
2021/11/06 00:47:39;;;;;;;23.10;13.60;;;7.60;99.90;;;;;;5011191;28;20453;-73
2021/11/06 00:50:07;;;;;;;25.43;14.33;;;7.60;99.90;;;;;;5010743;28;20433;-73
2021/11/06 00:52:33;;;;;;;30.00;15.00;;;7.60;99.90;;;;;;5010578;28;20441;-75
2021/11/06 00:54:59;;;;;;;36.70;14.50;;;7.50;99.90;;;;;;4993302;28;20519;-73
2021/11/06 00:57:25;;;;;;;28.93;14.40;;;7.50;99.90;;;;;;5011034;28;20422;-73
2021/11/06 00:59:50;;;;;;;27.23;13.57;;;7.50;99.90;;;;;;5010923;28;20424;-73
2021/11/06 01:02:16;;;;;;;31.20;14.37;;;7.50;99.90;;;;;;4992349;28;20266;-73
2021/11/06 01:04:42;;;;;;;23.60;12.17;;;7.50;99.90;;;;;;5011145;28;20206;-74
2021/11/06 01:07:08;;;;;;;26.50;14.30;;;7.50;99.90;;;;;;5011039;28;20195;-74
2021/11/06 01:09:34;;;;;;;31.73;14.77;;;7.50;99.90;;;;;;4993695;28;20990;-76
2021/11/06 01:11:59;;;;;;;22.00;11.70;;;7.50;99.90;;;;;;5010517;28;20501;-73
2021/11/06 01:14:25;;;;;;;26.10;12.53;;;7.40;99.90;;;;;;5011381;28;20258;-72
2021/11/06 01:16:51;;;;;;;31.17;14.50;;;7.50;99.90;;;;;;4993776;28;20167;-73
2021/11/06 01:19:17;;;;;;;22.20;12.73;;;7.40;99.90;;;;;;5011028;28;20159;-74
2021/11/06 01:21:42;;;;;;;25.83;12.40;;;7.40;99.90;;;;;;5010636;28;20947;-73
2021/11/06 01:24:08;;;;;;;27.93;12.83;;;7.40;99.90;;;;;;5011311;28;20221;-73
2021/11/06 01:26:34;;;;;;;27.83;12.93;;;7.40;99.90;;;;;;5011020;28;20668;-72
2021/11/06 01:29:00;;;;;;;28.77;13.07;;;7.40;99.90;;;;;;4993741;28;20759;-73
2021/11/06 01:31:27;;;;;;;28.40;11.93;;;7.40;99.90;;;;;;5009487;28;20489;-73
2021/11/06 01:33:53;;;;;;;29.80;11.97;;;7.30;99.90;;;;;;5010468;28;20186;-72
2021/11/06 01:36:19;;;;;;;28.23;12.60;;;7.30;99.90;;;;;;5010477;28;20442;-74
2021/11/06 01:38:44;;;;;;;20.50;11.50;;;7.30;99.90;;;;;;5010885;28;20541;-74
2021/11/06 01:41:11;;;;;;;26.20;10.90;;;7.30;99.90;;;;;;5010059;28;20421;-74
2021/11/06 01:43:38;;;;;;;30.80;10.33;;;7.30;99.90;;;;;;4997033;28;20210;-73
2021/11/06 01:46:05;;;;;;;29.97;12.73;;;7.20;99.90;;;;;;4980113;28;20445;-73
2021/11/06 01:48:31;;;;;;;30.47;11.57;;;7.20;99.90;;;;;;4996824;28;20416;-72
2021/11/06 01:50:58;;;;;;;26.13;10.93;;;7.20;99.90;;;;;;5013968;28;20521;-73
2021/11/06 01:53:24;;;;;;;28.17;12.63;;;7.20;99.90;;;;;;5015643;28;20175;-72
2021/11/06 01:55:53;;;;;;;23.67;11.23;;;7.20;99.90;;;;;;5014505;28;20464;-73
2021/11/06 01:58:20;;;;;;;25.10;11.87;;;7.20;99.90;;;;;;4996895;28;20425;-74
2021/11/06 02:00:46;;;;;;;20.27;11.23;;;7.20;99.90;;;;;;5014477;28;20480;-73
2021/11/06 02:03:14;;;;;;;25.90;10.60;;;7.20;99.90;;;;;;5014975;28;20410;-73
2021/11/06 02:05:40;;;;;;;21.47;11.50;;;7.10;99.90;;;;;;5018302;28;20800;-73
2021/11/06 02:08:06;;;;;;;26.90;11.60;;;7.10;99.90;;;;;;5022408;28;20453;-73
2021/11/06 02:10:32;;;;;;;26.23;11.30;;;7.10;99.90;;;;;;5022906;28;20471;-73
2021/11/06 02:12:58;;;;;;;26.40;10.80;;;7.10;99.90;;;;;;5013575;28;20175;-73
2021/11/06 02:15:24;;;;;;;26.53;12.10;;;7.10;99.90;;;;;;5014274;28;20433;-74
2021/11/06 02:17:50;;;;;;;22.23;10.17;;;7.10;99.90;;;;;;4995938;28;20418;-73
2021/11/06 02:20:17;;;;;;;22.63;10.57;;;7.00;99.90;;;;;;5013843;28;20434;-72
2021/11/06 02:22:43;;;;;;;18.90;11.80;;;7.00;99.90;;;;;;4995384;28;20413;-72
2021/11/06 02:25:10;;;;;;;31.70;10.33;;;7.00;99.90;;;;;;5013345;28;20441;-72
2021/11/06 02:27:37;;;;;;;22.27;9.80;;;7.00;99.90;;;;;;5013460;28;20561;-72
2021/11/06 02:30:04;;;;;;;20.20;9.70;;;7.00;99.90;;;;;;4995874;28;20764;-73
2021/11/06 02:32:31;;;;;;;28.20;10.87;;;6.90;99.90;;;;;;5012555;28;20937;-73
2021/11/06 02:34:56;;;;;;;24.43;9.40;;;6.90;99.90;;;;;;4995801;28;20436;-73
2021/11/06 02:37:22;;;;;;;20.30;11.93;;;6.90;99.90;;;;;;5013232;28;21205;-73
2021/11/06 02:39:48;;;;;;;15.87;9.37;;;6.90;99.90;;;;;;5013512;28;20214;-73
2021/11/06 02:42:14;;;;;;;26.57;10.23;;;6.80;99.90;;;;;;5012823;28;20171;-73
2021/11/06 02:44:41;;;;;;;31.47;11.00;;;6.80;99.90;;;;;;5013222;28;20206;-73
2021/11/06 02:47:06;;;;;;;25.63;11.00;;;6.80;99.90;;;;;;4996128;28;20525;-73
2021/11/06 02:49:32;;;;;;;19.93;10.57;;;6.80;99.90;;;;;;4998791;28;20438;-72
2021/11/06 02:51:58;;;;;;;23.20;10.70;;;6.80;99.90;;;;;;4994909;28;20167;-73
2021/11/06 02:54:24;;;;;;;21.63;11.50;;;6.80;99.90;;;;;;5013382;28;20175;-73
2021/11/06 02:56:50;;;;;;;24.10;11.00;;;6.80;99.90;;;;;;5013987;28;20174;-73
2021/11/06 02:59:15;;;;;;;20.10;10.80;;;6.80;99.90;;;;;;5012951;28;20171;-73
2021/11/06 03:01:42;;;;;;;29.13;10.10;;;6.80;99.90;;;;;;4995157;28;20568;-73
2021/11/06 03:04:09;;;;;;;25.80;11.53;;;6.80;99.90;;;;;;5012710;28;20699;-74
2021/11/06 03:06:35;;;;;;;22.30;10.30;;;6.80;99.90;;;;;;5013073;28;20544;-73
2021/11/06 03:09:03;;;;;;;31.00;10.90;;;6.80;99.90;;;;;;4994907;28;20433;-74
2021/11/06 03:11:30;;;;;;;23.70;10.33;;;6.80;99.90;;;;;;5012420;28;20870;-74
2021/11/06 03:13:57;;;;;;;23.23;10.47;;;6.70;99.90;;;;;;4994841;28;20410;-74
2021/11/06 03:16:22;;;;;;;20.40;10.00;;;6.70;99.90;;;;;;5012678;28;20440;-73
2021/11/06 03:18:48;;;;;;;23.23;10.73;;;6.70;99.90;;;;;;5012014;28;20418;-72
2021/11/06 03:21:17;;;;;;;14.20;9.60;;;6.70;99.90;;;;;;5011646;28;20167;-73
2021/11/06 03:23:43;;;;;;;22.50;10.70;;;6.70;99.90;;;;;;5012146;28;20268;-72
2021/11/06 03:26:08;;;;;;;20.27;10.73;;;6.70;99.90;;;;;;4994862;28;20504;-71
2021/11/06 03:28:34;;;;;;;25.33;10.60;;;6.60;99.90;;;;;;5012059;28;20194;-71
2021/11/06 03:31:00;;;;;;;20.83;10.60;;;6.60;99.90;;;;;;5010473;28;20229;-72
2021/11/06 03:33:26;;;;;;;19.70;9.77;;;6.60;99.90;;;;;;5011932;28;20787;-73
2021/11/06 03:35:52;;;;;;;24.10;10.43;;;6.60;99.90;;;;;;5012262;28;20595;-72
2021/11/06 03:38:18;;;;;;;19.53;9.80;;;6.60;99.90;;;;;;5012006;28;20903;-73
2021/11/06 03:40:43;;;;;;;20.70;9.60;;;6.60;99.90;;;;;;5011328;28;20518;-72
2021/11/06 03:43:09;;;;;;;21.03;9.47;;;6.60;99.90;;;;;;5012076;28;20224;-73
2021/11/06 03:45:35;;;;;;;19.83;9.27;;;6.60;99.90;;;;;;5010373;28;20191;-74
2021/11/06 03:48:01;;;;;;;17.60;8.77;;;6.60;99.90;;;;;;5012663;28;20202;-72
2021/11/06 03:50:27;;;;;;;18.60;9.43;;;6.60;99.90;;;;;;5012684;28;20414;-74
2021/11/06 03:52:53;;;;;;;18.50;10.40;;;6.60;99.90;;;;;;5011230;28;20171;-74
2021/11/06 03:55:19;;;;;;;16.57;9.00;;;6.60;99.90;;;;;;5011724;28;20457;-73
2021/11/06 03:57:44;;;;;;;21.83;9.60;;;6.60;99.90;;;;;;5011954;28;20159;-72
2021/11/06 04:00:15;;;;;;;15.37;9.73;;;6.50;99.90;;;;;;5011988;28;20178;-73
2021/11/06 04:02:42;;;;;;;16.77;8.77;;;6.50;99.90;;;;;;5013306;28;20832;-73
2021/11/06 04:05:08;;;;;;;17.27;9.70;;;6.50;99.90;;;;;;5010903;28;20500;-73
2021/11/06 04:07:34;;;;;;;18.87;8.93;;;6.50;99.90;;;;;;5011503;28;20731;-73
2021/11/06 04:09:59;;;;;;;21.17;9.57;;;6.50;99.90;;;;;;5011359;28;20414;-72
2021/11/06 04:12:25;;;;;;;28.53;10.37;;;6.40;99.90;;;;;;5011089;28;20577;-73
2021/11/06 04:14:50;;;;;;;17.00;9.10;;;6.40;99.90;;;;;;5011026;28;20187;-72
2021/11/06 04:17:16;;;;;;;19.43;9.43;;;6.40;99.90;;;;;;4993589;28;20210;-73
2021/11/06 04:19:42;;;;;;;17.67;9.77;;;6.40;99.90;;;;;;5011000;28;20633;-72
2021/11/06 04:22:08;;;;;;;13.37;8.47;;;6.40;99.90;;;;;;5010510;28;20160;-72
2021/11/06 04:24:35;;;;;;;18.47;8.73;;;6.30;99.90;;;;;;5010906;28;20191;-72
2021/11/06 04:27:02;;;;;;;20.13;10.27;;;6.30;99.90;;;;;;5011232;28;20485;-72
2021/11/06 04:29:28;;;;;;;22.90;8.87;;;6.30;99.90;;;;;;5010871;28;20422;-73
2021/11/06 04:31:53;;;;;;;20.10;9.47;;;6.30;99.90;;;;;;5009627;28;20475;-73
2021/11/06 04:34:19;;;;;;;17.53;8.30;;;6.30;99.90;;;;;;5010816;28;20198;-72
2021/11/06 04:36:45;;;;;;;19.53;9.60;;;6.30;99.90;;;;;;5010984;28;20274;-72
2021/11/06 04:39:11;;;;;;;18.27;9.27;;;6.30;99.90;;;;;;4992919;28;20178;-73
2021/11/06 04:41:37;;;;;;;21.00;9.30;;;6.30;99.90;;;;;;5010559;28;20421;-73
2021/11/06 04:44:02;;;;;;;15.77;8.00;;;6.30;99.90;;;;;;5010740;28;20859;-73
2021/11/06 04:46:28;;;;;;;16.93;9.50;;;6.30;99.90;;;;;;5010742;28;20191;-72
2021/11/06 04:48:54;;;;;;;17.20;9.27;;;6.30;99.90;;;;;;5010661;28;20402;-72
2021/11/06 04:51:19;;;;;;;15.37;8.47;;;6.20;99.90;;;;;;5010213;28;20241;-73
2021/11/06 04:53:45;;;;;;;16.37;9.57;;;6.20;99.90;;;;;;5010462;28;20238;-73
2021/11/06 04:56:11;;;;;;;17.50;9.60;;;6.20;99.90;;;;;;5010736;28;20206;-73
2021/11/06 04:58:37;;;;;;;18.43;9.50;;;6.20;99.90;;;;;;4993014;28;20171;-73
2021/11/06 05:01:02;;;;;;;18.83;9.70;;;6.20;99.90;;;;;;5010077;28;20163;-73
2021/11/06 05:03:28;;;;;;;20.07;8.80;;;6.10;99.90;;;;;;5010907;28;20479;-73
2021/11/06 05:05:54;;;;;;;17.77;9.47;;;6.20;99.90;;;;;;5010983;28;20253;-74
2021/11/06 05:08:20;;;;;;;16.17;8.40;;;6.10;99.90;;;;;;5010471;28;20497;-72
2021/11/06 05:10:45;;;;;;;23.30;9.40;;;6.10;99.90;;;;;;5009902;28;20194;-72
2021/11/06 05:13:11;;;;;;;23.23;9.93;;;6.10;99.90;;;;;;5010809;28;20215;-73
2021/11/06 05:15:37;;;;;;;17.77;9.83;;;6.10;99.90;;;;;;4993812;28;20187;-73
2021/11/06 05:18:03;;;;;;;12.57;8.40;;;6.10;99.90;;;;;;4997361;28;20633;-73
2021/11/06 05:20:28;;;;;;;19.83;10.43;;;6.00;99.90;;;;;;4996760;28;20676;-73
2021/11/06 05:22:54;;;;;;;18.67;9.93;;;6.00;99.90;;;;;;5014269;28;20463;-72
2021/11/06 05:25:20;;;;;;;22.60;11.23;;;6.00;99.90;;;;;;4980340;28;20202;-73
2021/11/06 05:27:46;;;;;;;18.50;9.90;;;6.00;99.90;;;;;;5015019;28;20207;-72
2021/11/06 05:30:12;;;;;;;17.90;11.50;;;6.00;99.90;;;;;;5014458;28;20495;-72
2021/11/06 05:32:39;;;;;;;14.33;9.60;;;6.00;99.80;;;;;;4997512;28;20167;-73
2021/11/06 05:35:07;;;;;;;18.17;10.23;;;5.90;99.80;;;;;;5000143;28;20433;-72
2021/11/06 05:37:33;;;;;;;17.80;10.80;;;5.90;99.90;;;;;;5018827;28;20504;-72
2021/11/06 05:39:58;;;;;;;20.60;10.50;;;5.90;99.90;;;;;;5016954;28;20902;-72
2021/11/06 05:42:24;;;;;;;19.60;9.93;;;5.90;99.90;;;;;;5014072;28;20422;-71
2021/11/06 05:44:49;;;;;;;22.43;10.00;;;5.90;99.90;;;;;;5014078;28;20253;-73
2021/11/06 05:47:16;;;;;;;16.17;9.20;;;5.80;99.90;;;;;;5014176;28;20677;-72
2021/11/06 05:49:42;;;;;;;15.90;9.83;;;5.80;99.90;;;;;;5013687;28;20182;-72
2021/11/06 05:52:07;;;;;;;18.00;10.10;;;5.80;99.90;;;;;;5013340;28;20414;-72
2021/11/06 05:54:33;;;;;;;19.30;9.40;;;5.80;99.90;;;;;;5013678;28;20441;-72
2021/11/06 05:56:59;;;;;;;16.43;8.47;;;5.80;99.90;;;;;;4996408;28;20187;-72
2021/11/06 05:59:24;;;;;;;17.10;9.77;;;5.80;99.90;;;;;;5013848;28;20171;-72
2021/11/06 06:01:50;;;;;;;20.50;10.40;;;5.80;99.90;;;;;;4995736;28;20691;-71
2021/11/06 06:04:16;;;;;;;18.53;9.70;;;5.80;99.90;;;;;;5013729;28;20220;-72
2021/11/06 06:06:42;;;;;;;16.73;10.50;;;5.70;99.90;;;;;;4995640;28;20466;-72
2021/11/06 06:09:08;;;;;;;24.37;11.80;;;5.70;99.90;;;;;;4996071;28;20266;-72
2021/11/06 06:11:34;;;;;;;18.83;10.13;;;5.70;99.90;;;;;;4995148;28;20179;-72
2021/11/06 06:13:59;;;;;;;19.77;11.17;;;5.70;99.90;;;;;;5013620;28;20530;-72
2021/11/06 06:16:26;;;;;;;17.20;10.60;;;5.70;99.90;;;;;;5013318;28;20432;-73
2021/11/06 06:18:52;;;;;;;18.30;9.73;;;5.70;99.90;;;;;;5013535;28;20636;-72
2021/11/06 06:21:17;;;;;;;15.07;9.83;;;5.70;99.90;;;;;;5012490;28;20405;-72
2021/11/06 06:23:44;;;;;;;19.37;10.97;;;5.70;99.90;;;;;;5013611;28;20903;-72
2021/11/06 06:26:10;;;;;;;13.77;8.67;;;5.70;99.90;;;;;;5013007;28;20190;-72
2021/11/06 06:28:36;;;;;;;18.40;9.90;;;5.70;99.90;;;;;;5012613;28;20418;-75
2021/11/06 06:31:02;;;;;;;15.40;8.50;;;5.70;99.90;;;;;;4994873;28;20421;-72
2021/11/06 06:33:27;;;;;;;16.80;9.47;;;5.80;99.90;;;;;;5013326;28;21034;-73
2021/11/06 06:35:53;;;;;;;16.40;9.80;;;5.80;99.90;;;;;;5013098;28;20249;-71
2021/11/06 06:38:19;;;;;;;18.80;9.20;;;5.80;99.90;;;;;;5013373;28;20178;-72
2021/11/06 06:40:45;;;;;;;15.77;9.10;;;5.80;99.90;;;;;;5012533;28;20174;-72
2021/11/06 06:43:10;;;;;;;15.93;8.70;;;5.80;99.90;;;;;;5013025;28;20194;-72
2021/11/06 06:45:36;;;;;;;15.40;8.73;;;5.80;99.90;;;;;;5012523;28;20269;-73
2021/11/06 06:48:02;;;;;;;10.70;8.60;;;5.80;99.90;;;;;;5012787;28;20614;-73
2021/11/06 06:50:28;;;;;;;15.30;9.07;;;5.80;99.90;;;;;;5012511;28;20163;-73
2021/11/06 06:52:54;;;;;;;14.63;9.13;;;5.90;99.90;;;;;;5012611;28;20927;-73
2021/11/06 06:55:19;;;;;;;14.70;9.40;;;5.90;99.90;;;;;;5012466;28;20272;-73
2021/11/06 06:57:45;;;;;;;21.73;9.50;;;5.90;99.90;;;;;;5012895;28;20166;-73
2021/11/06 07:00:12;;;;;;;13.17;8.67;;;5.90;99.90;;;;;;5012506;28;20256;-74
2021/11/06 07:02:38;;;;;;;14.80;9.73;;;5.90;99.90;;;;;;5011833;28;20167;-72
2021/11/06 07:05:04;;;;;;;17.23;8.27;;;6.00;99.90;;;;;;5012315;28;20484;-73
2021/11/06 07:07:30;;;;;;;21.23;10.03;;;6.10;99.90;;;;;;4994956;28;20460;-74
2021/11/06 07:09:56;;;;;;;14.27;9.20;;;6.10;99.90;;;;;;5011179;28;20513;-72
2021/11/06 07:12:25;;;;;;;15.57;8.80;;;6.20;99.90;;;;;;5010922;28;20182;-72
2021/11/06 07:14:52;;;;;;;15.70;8.40;;;6.20;99.80;;;;;;5012184;28;20279;-72
2021/11/06 07:17:17;;;;;;;18.40;9.10;;;6.30;99.60;;;;;;4991846;28;20434;-74
2021/11/06 07:19:43;;;;;;;22.23;9.10;;;6.30;99.40;;;;;;5010465;28;20511;-72
2021/11/06 07:22:09;;;;;;;18.07;9.67;;;6.30;99.30;;;;;;4993551;28;20189;-73
2021/11/06 07:24:36;;;;;;;18.23;8.97;;;6.40;99.40;;;;;;5011892;28;20282;-72
2021/11/06 07:27:05;;;;;;;20.17;9.83;;;6.50;99.50;;;;;;5009086;28;20653;-73
2021/11/06 07:29:31;;;;;;;17.17;9.87;;;6.60;99.10;;;;;;5005635;28;20422;-74
2021/11/06 07:31:57;;;;;;;12.50;7.87;;;6.70;99.10;;;;;;4996282;28;20582;-73
2021/11/06 07:34:23;;;;;;;17.57;8.83;;;6.80;98.60;;;;;;4998641;28;20525;-72
2021/11/06 07:36:49;;;;;;;15.03;9.77;;;6.90;98.50;;;;;;5010520;28;20182;-76
2021/11/06 07:39:16;;;;;;;18.53;9.97;;;6.90;98.10;;;;;;5014958;28;20944;-79
2021/11/06 07:41:42;;;;;;;13.77;8.50;;;7.00;97.90;;;;;;5016001;28;20429;-78
2021/11/06 07:44:11;;;;;;;31.07;16.57;;;7.00;97.50;;;;;;5019129;28;20464;-78
2021/11/06 07:46:39;;;;;;;19.77;11.43;;;7.00;97.20;;;;;;5026075;28;20547;-78
2021/11/06 07:49:04;;;;;;;14.80;9.40;;;7.00;97.10;;;;;;5025100;28;20424;-78
2021/11/06 07:51:30;;;;;;;10.67;8.43;;;7.10;97.00;;;;;;5004590;28;20446;-77
2021/11/06 07:53:56;;;;;;;13.50;7.60;;;7.20;96.80;;;;;;4999863;28;20211;-77
2021/11/06 07:56:22;;;;;;;12.60;7.93;;;7.20;96.60;;;;;;5029436;28;20221;-78
2021/11/06 07:58:48;;;;;;;10.90;7.17;;;7.20;96.20;;;;;;4996966;28;20422;-78
2021/11/06 08:01:14;;;;;;;12.37;7.90;;;7.20;95.90;;;;;;5012673;28;20171;-79
2021/11/06 08:03:39;;;;;;;13.30;7.80;;;7.30;96.20;;;;;;5005990;28;20426;-79
2021/11/06 08:06:06;;;;;;;16.13;8.70;;;7.40;96.00;;;;;;4995560;28;20204;-77
2021/11/06 08:08:32;;;;;;;10.93;7.67;;;7.50;95.90;;;;;;5009905;28;20264;-79
2021/11/06 08:10:58;;;;;;;12.00;8.20;;;7.60;95.60;;;;;;5016299;28;20410;-76
2021/11/06 08:13:25;;;;;;;18.67;9.87;;;7.70;95.10;;;;;;5016081;28;20410;-78
2021/11/06 08:15:51;;;;;;;14.70;8.07;;;7.90;95.00;;;;;;4998605;28;20294;-78
2021/11/06 08:18:17;;;;;;;13.60;7.50;;;8.00;94.70;;;;;;5015518;28;20430;-79
2021/11/06 08:20:42;;;;;;;10.90;6.77;;;8.00;94.00;;;;;;5014113;28;20449;-77
2021/11/06 08:23:08;;;;;;;13.17;7.00;;;8.10;93.60;;;;;;5013095;28;20175;-78
2021/11/06 08:25:35;;;;;;;21.90;8.80;;;8.20;93.40;;;;;;5014740;28;20239;-77
2021/11/06 08:28:01;;;;;;;12.50;6.77;;;8.20;92.60;;;;;;4994464;28;20571;-78
2021/11/06 08:30:27;;;;;;;11.17;7.20;;;8.30;92.30;;;;;;4998049;28;20406;-78
2021/11/06 08:32:56;;;;;;;10.73;5.43;;;8.30;91.30;;;;;;5013772;28;20193;-78
2021/11/06 08:35:25;;;;;;;9.00;6.40;;;8.30;91.00;;;;;;4999482;28;20529;-78
2021/11/06 08:37:51;;;;;;;8.50;5.73;;;8.30;91.60;;;;;;5015846;28;20452;-79
2021/11/06 08:40:17;;;;;;;12.70;7.83;;;8.40;91.70;;;;;;5016067;28;20800;-78
2021/11/06 08:42:43;;;;;;;7.70;6.07;;;8.50;91.50;;;;;;5013499;28;20512;-78
2021/11/06 08:45:11;;;;;;;23.23;14.80;;;8.60;90.70;;;;;;4997595;28;20210;-79
2021/11/06 08:47:38;;;;;;;11.17;7.23;;;8.70;91.20;;;;;;4999685;28;20457;-79
2021/11/06 08:50:10;;;;;;;13.97;7.67;;;8.80;90.90;;;;;;5002828;28;20486;-77
2021/11/06 08:52:36;;;;;;;8.70;6.00;;;8.90;90.50;;;;;;5017454;28;21015;-78
2021/11/06 08:55:03;;;;;;;14.20;6.30;;;9.00;86.60;;;;;;5013826;28;20537;-78
2021/11/06 08:57:29;;;;;;;6.13;5.07;;;9.30;91.00;;;;;;5014476;28;20456;-78
2021/11/06 08:59:59;;;;;;;9.00;4.97;;;10.70;87.40;;;;;;4997602;28;20422;-78
2021/11/06 09:02:25;;;;;;;6.20;4.60;;;12.90;82.00;;;;;;5015105;28;20230;-78
2021/11/06 09:04:51;;;;;;;8.43;3.97;;;15.30;70.60;;;;;;5030276;28;20532;-79
2021/11/06 09:07:17;;;;;;;8.30;5.00;;;16.90;64.00;;;;;;4986374;28;20300;-79
2021/11/06 09:09:45;;;;;;;8.10;5.63;;;18.40;57.20;;;;;;5000417;28;20196;-78
2021/11/06 09:12:11;;;;;;;9.27;5.67;;;19.20;51.70;;;;;;4996239;28;20413;-78
2021/11/06 09:14:37;;;;;;;7.30;5.20;;;19.90;51.10;;;;;;5016201;28;20440;-79
2021/11/06 09:17:03;;;;;;;8.07;5.50;;;20.80;49.50;;;;;;5016594;28;20425;-78
2021/11/06 09:19:29;;;;;;;7.80;5.43;;;21.30;45.00;;;;;;5015635;28;20218;-78
2021/11/06 09:21:55;;;;;;;5.83;4.37;;;21.30;44.10;;;;;;5017938;28;20897;-78
2021/11/06 09:24:20;;;;;;;5.93;4.67;;;20.30;42.50;;;;;;4999433;28;20262;-79
2021/11/06 09:26:46;;;;;;;6.70;4.50;;;20.10;45.20;;;;;;5015815;28;20226;-78
2021/11/06 09:29:14;;;;;;;8.27;5.60;;;20.20;45.40;;;;;;5016590;28;20160;-79
2021/11/06 09:31:41;;;;;;;10.33;6.20;;;20.50;42.60;;;;;;4998519;28;20241;-80
2021/11/06 09:34:08;;;;;;;8.23;5.47;;;20.10;43.00;;;;;;5016851;28;20437;-81
2021/11/06 09:36:35;;;;;;;4.87;4.00;;;20.30;44.10;;;;;;5015256;28;20418;-78
2021/11/06 09:39:06;;;;;;;7.80;4.87;;;20.50;42.50;;;;;;4998433;28;20418;-78
2021/11/06 09:41:32;;;;;;;8.13;5.40;;;19.90;43.40;;;;;;4996901;28;20792;-79
2021/11/06 09:43:58;;;;;;;7.23;3.67;;;19.90;44.40;;;;;;5003786;28;20755;-83
2021/11/06 09:46:25;;;;;;;4.40;2.80;;;19.50;43.10;;;;;;5000364;28;20446;-80
2021/11/06 09:48:51;;;;;;;4.70;3.10;;;19.40;44.20;;;;;;5015117;28;20430;-78
2021/11/06 09:51:18;;;;;;;5.43;2.90;;;19.70;44.40;;;;;;5015771;28;20432;-78
2021/11/06 09:53:46;;;;;;;4.00;2.90;;;19.90;43.80;;;;;;5016931;28;20171;-78
2021/11/06 09:56:17;;;;;;;5.10;3.80;;;20.30;43.30;;;;;;5015965;28;20508;-78
2021/11/06 09:58:43;;;;;;;6.10;5.00;;;20.60;42.60;;;;;;5015931;28;20406;-80
2021/11/06 10:01:09;;;;;;;4.20;2.93;;;20.40;42.60;;;;;;4998529;28;20410;-78
2021/11/06 10:03:41;;;;;;;4.03;2.70;;;19.10;42.60;;;;;;5015874;28;20749;-78
2021/11/06 10:06:16;;;;;;;8.43;3.87;;;17.70;44.10;;;;;;5002606;28;20850;-79
2021/11/06 10:08:43;;;;;;;4.50;2.70;;;16.40;46.90;;;;;;5018290;28;20412;-79
2021/11/06 10:11:11;;;;;;;4.37;3.40;;;15.80;49.20;;;;;;5020701;28;20403;-78
2021/11/06 10:13:50;;;;;;;3.97;2.80;;;15.40;50.10;;;;;;5019260;28;20436;-78
2021/11/06 10:16:29;;;;;;;5.30;2.40;;;14.70;51.30;;;;;;5018303;28;20503;-78
2021/11/06 10:19:11;;;;;;;7.87;3.27;;;14.30;53.10;;;;;;5022607;28;20422;-78
2021/11/06 10:21:46;;;;;;;6.67;2.87;;;14.10;53.80;;;;;;5025212;28;20406;-78
2021/11/06 10:24:14;;;;;;;22.93;15.23;;;13.90;54.40;;;;;;5024457;28;20748;-79
2021/11/06 10:26:40;;;;;;;4.77;3.23;;;13.50;55.60;;;;;;5022355;28;20454;-78
2021/11/06 10:29:12;;;;;;;7.40;3.10;;;13.20;56.30;;;;;;5015980;28;20449;-77
2021/11/06 10:31:58;;;;;;;6.33;3.20;;;12.90;57.20;;;;;;5014516;28;20453;-77
2021/11/06 10:34:25;;;;;;;8.33;3.17;;;12.50;59.50;;;;;;4988147;28;20410;-76
2021/11/06 10:37:11;;;;;;;5.03;2.73;;;12.40;60.40;;;;;;5017018;28;20450;-78
2021/11/06 10:39:52;;;;;;;4.33;2.27;;;12.30;60.90;;;;;;5025330;28;20434;-81
2021/11/06 10:42:18;;;;;;;5.07;3.13;;;12.10;61.50;;;;;;5020455;28;20430;-80
2021/11/06 10:44:43;;;;;;;5.00;3.00;;;12.00;63.00;;;;;;5019529;28;20456;-78
2021/11/06 10:47:10;;;;;;;4.33;2.53;;;11.90;63.20;;;;;;5017594;28;20529;-79
2021/11/06 10:49:43;;;;;;;5.70;1.90;;;11.90;64.50;;;;;;4999581;28;20217;-78
2021/11/06 10:52:11;;;;;;;5.50;2.67;;;11.80;64.30;;;;;;5013139;28;20430;-78
2021/11/06 10:55:00;;;;;;;4.87;2.77;;;11.80;65.80;;;;;;5013835;28;20453;-79
2021/11/06 10:57:27;;;;;;;3.30;2.10;;;11.80;66.30;;;;;;5016304;28;20464;-79
2021/11/06 11:00:07;;;;;;;3.40;1.80;;;11.90;66.20;;;;;;5017489;28;20598;-79
2021/11/06 11:02:33;;;;;;;4.33;2.50;;;11.90;66.30;;;;;;5020989;28;20422;-79
2021/11/06 11:04:58;;;;;;;3.10;1.77;;;12.00;66.80;;;;;;5021967;28;20454;-77
2021/11/06 11:07:24;;;;;;;4.53;1.90;;;12.00;66.50;;;;;;5022374;28;20643;-78
2021/11/06 11:09:50;;;;;;;4.47;2.40;;;12.10;66.70;;;;;;5020199;28;20166;-77
2021/11/06 11:12:17;;;;;;;4.37;1.67;;;12.10;66.70;;;;;;5017783;28;20563;-78
2021/11/06 11:14:56;;;;;;;3.67;2.13;;;12.10;66.60;;;;;;5017355;28;20310;-81
2021/11/06 11:17:42;;;;;;;4.70;1.67;;;12.20;66.30;;;;;;5017517;28;20429;-80
2021/11/06 11:20:31;;;;;;;2.30;1.43;;;12.30;66.80;;;;;;4998270;28;20618;-78
2021/11/06 11:23:10;;;;;;;2.47;1.70;;;12.40;66.60;;;;;;4996458;28;20477;-79
2021/11/06 11:25:37;;;;;;;3.20;1.23;;;12.50;66.30;;;;;;4997261;28;20434;-80
2021/11/06 11:28:04;;;;;;;2.60;1.17;;;12.60;66.20;;;;;;4996515;28;20469;-79
2021/11/06 11:30:29;;;;;;;2.37;1.37;;;12.60;65.80;;;;;;5014219;28;20461;-77
2021/11/06 11:32:55;;;;;;;2.13;0.93;;;12.60;65.50;;;;;;5014663;28;20884;-79
2021/11/06 11:35:21;;;;;;;3.33;1.40;;;12.50;65.30;;;;;;5014976;28;20198;-78
2021/11/06 11:37:47;;;;;;;3.10;2.40;;;12.50;66.20;;;;;;5014163;28;20171;-78
2021/11/06 11:40:14;;;;;;;2.60;1.70;;;12.60;66.60;;;;;;5015715;28;20182;-79
2021/11/06 11:42:58;;;;;;;7.80;2.17;;;12.60;66.40;;;;;;5013870;28;20417;-80
2021/11/06 11:45:47;;;;;;;3.33;1.30;;;12.60;66.20;;;;;;5015237;28;20468;-81
2021/11/06 11:48:18;;;;;;;3.03;1.13;;;12.60;66.30;;;;;;5020446;28;20453;-79
2021/11/06 11:50:45;;;;;;;2.87;1.17;;;12.50;66.50;;;;;;5002582;28;20496;-82
2021/11/06 11:53:21;;;;;;;6.40;1.70;;;12.50;66.80;;;;;;5018879;28;20433;-79
2021/11/06 11:55:50;;;;;;;4.00;2.17;;;12.60;66.90;;;;;;5001947;28;20589;-80
2021/11/06 11:58:24;;;;;;;2.53;1.50;;;12.60;66.50;;;;;;5020217;28;20405;-81
2021/11/06 12:00:53;;;;;;;7.13;1.60;;;12.60;66.50;;;;;;4989899;28;20426;-79
2021/11/06 12:03:33;;;;;;;1.77;1.20;;;12.50;66.70;;;;;;4999802;28;20528;-80
2021/11/06 12:05:59;;;;;;;2.13;1.03;;;12.60;67.20;;;;;;5017863;28;20523;-79
2021/11/06 12:08:30;;;;;;;29.00;16.37;;;12.80;66.80;;;;;;5018449;28;20577;-79
2021/11/06 12:11:10;;;;;;;18.10;8.33;;;13.00;66.50;;;;;;5018626;28;20485;-80
2021/11/06 12:13:39;;;;;;;22.23;10.67;;;13.20;65.80;;;;;;5002268;28;20437;-79
2021/11/06 12:16:12;;;;;;;3.70;2.20;;;13.40;64.50;;;;;;5004405;28;20511;-80
2021/11/06 12:18:43;;;;;;;1.73;1.27;;;13.50;63.80;;;;;;5016874;28;20434;-79
2021/11/06 12:21:20;;;;;;;4.00;1.90;;;13.40;62.50;;;;;;5018801;28;20426;-79
2021/11/06 12:24:19;;;;;;;3.53;1.00;;;13.40;62.90;;;;;;5000727;28;20776;-80
2021/11/06 12:27:01;;;;;;;9.53;3.90;;;13.40;62.50;;;;;;5001561;28;20481;-79
2021/11/06 12:29:33;;;;;;;18.17;6.33;;;13.30;61.10;;;;;;5019345;28;20410;-80
2021/11/06 12:32:31;;;;;;;2.67;1.57;;;13.10;61.20;;;;;;5020761;28;20414;-80
2021/11/06 12:35:00;;;;;;;2.37;1.10;;;13.00;61.40;;;;;;5002089;28;20461;-80
2021/11/06 12:37:35;;;;;;;2.23;1.20;;;12.90;60.90;;;;;;5004419;28;20414;-80
2021/11/06 12:40:18;;;;;;;1.57;1.00;;;12.80;61.50;;;;;;5020976;28;20422;-80
2021/11/06 12:43:02;;;;;;;1.53;1.03;;;12.80;60.80;;;;;;5001249;28;20426;-80
2021/11/06 12:45:29;;;;;;;1.70;0.90;;;12.80;60.10;;;;;;5028646;28;20485;-78